Metar z połowy godziny Komunikat METAR ze strony awiacja.imgw.pl Metar G30 EPLL METAR EPLL 241930Z VRB01KT CAVOK 13/11 Q1012 =